createdAt,value
2019-02-26T00:01:31.879Z,442
2019-02-26T00:02:34.553Z,442.5
2019-02-26T00:03:37.428Z,442.2
2019-02-26T00:04:39.875Z,442.1
2019-02-26T00:05:42.308Z,442.4
2019-02-26T00:11:11.779Z,442.3
2019-02-26T00:12:14.205Z,442.1
2019-02-26T00:13:16.341Z,441.8
2019-02-26T00:18:44.197Z,442
2019-02-26T00:19:46.629Z,442.1
2019-02-26T00:20:49.055Z,441.9
2019-02-26T00:26:23.829Z,442
2019-02-26T00:28:31.226Z,441.8
2019-02-26T00:29:33.877Z,442.1
2019-02-26T00:31:41.022Z,442.1
2019-02-26T00:32:43.163Z,442.2
2019-02-26T00:33:45.607Z,442.1
2019-02-26T00:34:48.039Z,442.6
2019-02-26T00:35:52.135Z,442.8
2019-02-26T00:36:54.552Z,442.8
2019-02-26T00:37:57.745Z,443.5
2019-02-26T00:43:38.293Z,443.6
2019-02-26T00:44:40.723Z,443.4
2019-02-26T00:45:42.880Z,443.1
2019-02-26T00:46:45.309Z,443.1
2019-02-26T00:47:48.203Z,442.7
2019-02-26T00:48:50.637Z,443.2
2019-02-26T00:53:12.088Z,443.9
2019-02-26T00:54:14.527Z,443.7
2019-02-26T00:55:16.699Z,444.2
2019-02-26T00:56:19.124Z,444.5
2019-02-26T00:57:21.011Z,444.7
2019-02-26T00:58:23.439Z,445.3
2019-02-26T00:59:25.335Z,445.5
2019-02-26T01:01:32.478Z,445.8
2019-02-26T01:02:34.633Z,445.8
2019-02-26T01:03:37.063Z,446.1
2019-02-26T01:05:51.550Z,446.9
2019-02-26T01:06:53.967Z,447.2
2019-02-26T01:07:56.427Z,447.6
2019-02-26T01:10:06.065Z,447.8
2019-02-26T01:11:10.028Z,448.2
2019-02-26T01:13:17.429Z,448.1
2019-02-26T01:14:25.697Z,448.2
2019-02-26T01:15:28.114Z,448.2
2019-02-26T01:16:29.993Z,448.6
2019-02-26T01:18:38.981Z,448.8
2019-02-26T01:21:51.369Z,449.3
2019-02-26T01:22:53.501Z,449.4
2019-02-26T01:25:03.708Z,449.8
2019-02-26T01:26:05.865Z,449.6
2019-02-26T01:27:08.305Z,449.9
2019-02-26T01:32:34.409Z,450.4
2019-02-26T01:33:36.569Z,450.8
2019-02-26T01:35:45.886Z,451.4
2019-02-26T01:38:58.009Z,451.7
2019-02-26T01:40:00.457Z,451.9
2019-02-26T01:41:02.599Z,451.6
2019-02-26T01:42:04.745Z,451.9
2019-02-26T01:43:07.580Z,451.7
2019-02-26T01:44:10.773Z,451.8
2019-02-26T01:45:12.909Z,451
2019-02-26T01:48:25.018Z,451.7
2019-02-26T01:53:55.617Z,451.4
2019-02-26T02:01:28.549Z,450.7
2019-02-26T02:02:31.705Z,450.4
2019-02-26T02:03:34.573Z,450.6
2019-02-26T02:05:45.273Z,450.4
2019-02-26T02:06:47.822Z,450.7
2019-02-26T02:12:12.477Z,451.5
2019-02-26T02:13:14.907Z,451.2
2019-02-26T02:14:18.481Z,451.4
2019-02-26T02:18:37.021Z,452.3
2019-02-26T02:19:39.185Z,451.9
2019-02-26T02:20:41.331Z,452.4
2019-02-26T02:21:43.756Z,452.2
2019-02-26T02:22:46.509Z,452
2019-02-26T02:24:57.646Z,452.2
2019-02-26T02:27:05.058Z,451.9
2019-02-26T02:28:07.482Z,451.9
2019-02-26T02:35:40.694Z,451.9
2019-02-26T02:36:43.126Z,452
2019-02-26T02:37:45.552Z,452
2019-02-26T02:38:47.979Z,452.4
2019-02-26T02:39:50.148Z,452.6
2019-02-26T02:41:57.544Z,452.8
2019-02-26T02:44:05.459Z,452.5
2019-02-26T02:46:12.884Z,452.2
2019-02-26T02:47:15.037Z,451.7
2019-02-26T02:48:17.460Z,451.8
2019-02-26T02:49:19.699Z,452.2
2019-02-26T02:50:21.842Z,451.6
2019-02-26T02:53:35.200Z,452.1
2019-02-26T02:56:48.073Z,452.5
2019-02-26T02:58:55.201Z,452.8
2019-02-26T03:01:04.620Z,453.1
2019-02-26T03:02:06.484Z,453
2019-02-26T03:03:08.631Z,453.3
2019-02-26T03:05:17.220Z,453.4
2019-02-26T03:06:19.382Z,453.5
2019-02-26T03:08:28.506Z,453.3
2019-02-26T03:16:03.738Z,453.9
2019-02-26T03:21:32.652Z,454
2019-02-26T03:24:44.794Z,453.9
2019-02-26T03:26:57.299Z,454
2019-02-26T03:27:59.763Z,453.9
2019-02-26T03:29:02.189Z,453.9
2019-02-26T03:30:04.633Z,453.9
2019-02-26T03:31:07.055Z,453.9
2019-02-26T03:32:09.521Z,454.2
2019-02-26T03:33:11.961Z,454.2
2019-02-26T03:36:24.373Z,455.8
2019-02-26T03:38:36.634Z,455.8
2019-02-26T03:39:39.059Z,456.2
2019-02-26T03:40:41.485Z,455.9
2019-02-26T03:42:48.889Z,455.4
2019-02-26T03:43:51.307Z,455.8
2019-02-26T03:44:53.739Z,456.3
2019-02-26T03:45:56.164Z,456.5
2019-02-26T03:46:58.320Z,457
2019-02-26T03:48:00.737Z,457.2
2019-02-26T03:51:12.566Z,456.6
2019-02-26T03:53:19.984Z,456.3
2019-02-26T03:54:22.416Z,456.5
2019-02-26T03:55:24.585Z,456.3
2019-02-26T03:56:27.030Z,456.2
2019-02-26T03:57:29.458Z,456.4
2019-02-26T03:58:31.882Z,456.5
2019-02-26T03:59:34.224Z,456.2
2019-02-26T04:01:41.343Z,456.7
2019-02-26T04:03:48.473Z,457
2019-02-26T04:08:06.237Z,457
2019-02-26T04:10:13.093Z,457.2
2019-02-26T04:12:22.502Z,456.6
2019-02-26T04:13:24.640Z,456.4
2019-02-26T04:17:44.209Z,456.8
2019-02-26T04:18:49.022Z,457
2019-02-26T04:19:53.570Z,456.8
2019-02-26T04:22:01.210Z,457.2
2019-02-26T04:23:03.643Z,456.7
2019-02-26T04:25:11.152Z,457.5
2019-02-26T04:27:18.564Z,457.9
2019-02-26T04:28:20.998Z,457.9
2019-02-26T04:29:23.443Z,458.4
2019-02-26T04:30:25.891Z,458.3
2019-02-26T04:31:28.029Z,458.4
2019-02-26T04:32:30.181Z,458.5
2019-02-26T04:34:40.202Z,459.1
2019-02-26T04:36:50.204Z,459.4
2019-02-26T04:38:57.644Z,459.6
2019-02-26T04:43:15.114Z,459.9
2019-02-26T04:45:23.068Z,459.9
2019-02-26T04:48:36.308Z,459.8
2019-02-26T04:54:03.624Z,460.1
2019-02-26T04:55:05.788Z,460.3
2019-02-26T04:57:13.189Z,459.9
2019-02-26T04:59:20.326Z,459.7
2019-02-26T05:01:31.047Z,459.9
2019-02-26T05:02:33.472Z,460.6
2019-02-26T05:03:35.627Z,460.7
2019-02-26T05:05:44.859Z,461
2019-02-26T05:06:47.014Z,460.8
2019-02-26T05:11:04.334Z,461.2
2019-02-26T05:12:06.761Z,461.2
2019-02-26T05:21:48.768Z,461.5
2019-02-26T05:25:01.697Z,461.2
2019-02-26T05:29:19.067Z,461
2019-02-26T05:31:26.219Z,461.3
2019-02-26T05:33:34.799Z,461.3
2019-02-26T05:36:49.196Z,460.8
2019-02-26T05:37:51.629Z,460.4
2019-02-26T05:39:59.034Z,460.3
2019-02-26T05:41:01.464Z,460.1
2019-02-26T05:43:08.878Z,460.3
2019-02-26T05:44:12.714Z,460.4
2019-02-26T05:45:15.159Z,460.4
2019-02-26T05:48:29.348Z,459.7
2019-02-26T05:51:41.722Z,460.8
2019-02-26T05:52:43.887Z,460.5
2019-02-26T05:53:46.318Z,460.2
2019-02-26T05:54:48.750Z,460.6
2019-02-26T05:56:58.358Z,460.1
2019-02-26T05:58:00.803Z,460
2019-02-26T06:03:25.640Z,459.1
2019-02-26T06:04:27.798Z,459
2019-02-26T06:05:30.244Z,458.8
2019-02-26T06:06:32.411Z,459.1
2019-02-26T06:10:50.286Z,459.7
2019-02-26T06:11:52.454Z,459.5
2019-02-26T06:12:54.885Z,459.4
2019-02-26T06:18:16.948Z,459.6
2019-02-26T06:19:20.275Z,459.2
2019-02-26T06:21:30.635Z,458.7
2019-02-26T06:22:36.030Z,458.6
2019-02-26T06:24:43.179Z,458.7
2019-02-26T06:25:45.083Z,458.8
2019-02-26T06:26:47.329Z,459.1
2019-02-26T06:27:49.489Z,458.8
2019-02-26T06:28:54.397Z,458.7
2019-02-26T06:31:01.829Z,458.5
2019-02-26T06:35:21.750Z,458.5
2019-02-26T06:38:38.902Z,457.8
2019-02-26T06:39:41.061Z,457.6
2019-02-26T06:41:52.670Z,457.4
2019-02-26T06:42:54.823Z,457.3
2019-02-26T06:43:56.989Z,457.8
2019-02-26T06:44:58.867Z,457.4
2019-02-26T06:47:10.349Z,457.3
2019-02-26T06:50:22.743Z,457.1
2019-02-26T06:53:34.832Z,457.4
2019-02-26T06:54:36.982Z,457
2019-02-26T06:55:39.152Z,457.4
2019-02-26T06:58:51.551Z,457.7
2019-02-26T07:00:58.989Z,457.6
2019-02-26T07:02:01.145Z,457.6
2019-02-26T07:03:04.655Z,457.1
2019-02-26T07:04:06.789Z,457.5
2019-02-26T07:05:08.949Z,457.4
2019-02-26T07:06:11.377Z,457.3
2019-02-26T07:09:24.252Z,457.4
2019-02-26T07:15:53.788Z,457.1
2019-02-26T07:20:10.931Z,456.4
2019-02-26T07:21:13.365Z,456.5
2019-02-26T07:22:19.511Z,456.4
2019-02-26T07:23:21.949Z,456.7
2019-02-26T07:24:28.574Z,456.9
2019-02-26T07:27:43.708Z,456.7
2019-02-26T07:28:51.738Z,456.7
2019-02-26T07:29:53.824Z,456.5
2019-02-26T07:30:55.983Z,456.8
2019-02-26T07:32:00.415Z,456.4
2019-02-26T07:34:12.717Z,456.9
2019-02-26T07:37:24.837Z,458.2
2019-02-26T07:38:29.528Z,458.4
2019-02-26T07:39:31.975Z,458.2
2019-02-26T07:41:44.498Z,458.4
2019-02-26T07:42:50.779Z,457.8
2019-02-26T07:43:56.278Z,458
2019-02-26T07:44:58.441Z,457.7
2019-02-26T07:46:00.609Z,457.8
2019-02-26T07:48:07.169Z,456.9
2019-02-26T07:49:09.328Z,456.7
2019-02-26T07:51:16.474Z,456.9
2019-02-26T07:52:18.627Z,456.6
2019-02-26T07:54:25.464Z,456.8
2019-02-26T07:56:37.447Z,456.9
2019-02-26T07:58:50.230Z,456.8
2019-02-26T07:59:52.405Z,456.8
2019-02-26T08:00:54.764Z,457.1
2019-02-26T08:01:57.187Z,457.4
2019-02-26T08:03:05.557Z,457.4
2019-02-26T08:06:20.925Z,457.1
2019-02-26T08:08:27.780Z,456.4
2019-02-26T08:09:34.815Z,456
2019-02-26T08:12:49.341Z,456
2019-02-26T08:16:07.205Z,456.4
2019-02-26T08:17:09.366Z,456.5
2019-02-26T08:18:11.511Z,456.7
2019-02-26T08:19:13.933Z,456.7
2019-02-26T08:20:16.899Z,456.5
2019-02-26T08:23:32.057Z,456.4
2019-02-26T08:24:34.502Z,456.6
2019-02-26T08:25:36.671Z,456.9
2019-02-26T08:27:44.091Z,455.8
2019-02-26T08:28:49.718Z,456.1
2019-02-26T08:32:03.945Z,456
2019-02-26T08:36:21.083Z,455.2
2019-02-26T08:37:23.242Z,455.2
2019-02-26T08:39:31.621Z,455
2019-02-26T08:40:33.774Z,455.1
2019-02-26T08:41:35.937Z,455.3
2019-02-26T08:42:38.093Z,455.3
2019-02-26T08:45:50.199Z,455.2
2019-02-26T08:46:52.634Z,455.4
2019-02-26T08:47:54.787Z,455.3
2019-02-26T08:48:57.213Z,455.5
2019-02-26T08:52:11.578Z,455.2
2019-02-26T08:53:13.767Z,455
2019-02-26T08:57:30.857Z,454.9
2019-02-26T08:58:33.001Z,455.4
2019-02-26T08:59:35.430Z,455.6
2019-02-26T09:00:37.584Z,455.7
2019-02-26T09:01:39.459Z,455.7
2019-02-26T09:03:53.169Z,455.8
2019-02-26T09:05:04.434Z,456
2019-02-26T09:07:23.708Z,456.4
2019-02-26T09:09:35.208Z,456.7
2019-02-26T09:11:46.614Z,456.4
2019-02-26T09:15:01.306Z,456.1
2019-02-26T09:17:08.727Z,456
2019-02-26T09:18:10.888Z,455.9
2019-02-26T09:19:13.026Z,455.9
2019-02-26T09:20:16.684Z,456.1
2019-02-26T09:23:34.092Z,456.4
2019-02-26T09:24:36.691Z,456.6
2019-02-26T09:25:39.155Z,456.8
2019-02-26T09:26:41.720Z,457.3
2019-02-26T09:27:45.037Z,457.4
2019-02-26T09:29:57.403Z,458.2
2019-02-26T09:33:12.476Z,458.5
2019-02-26T09:34:14.639Z,458.4
2019-02-26T09:37:26.468Z,459
2019-02-26T09:38:28.629Z,459.3
2019-02-26T09:40:39.868Z,458.7
2019-02-26T09:43:52.268Z,459.3
2019-02-26T09:45:59.663Z,459.6
2019-02-26T09:48:06.535Z,459.9
2019-02-26T09:51:25.492Z,459.5
2019-02-26T09:53:32.629Z,459.3
2019-02-26T09:55:40.048Z,459.7
2019-02-26T09:56:42.173Z,459.5
2019-02-26T09:57:44.601Z,459.8
2019-02-26T10:00:59.335Z,459.5
2019-02-26T10:02:07.107Z,459.5
2019-02-26T10:04:14.239Z,459.3
2019-02-26T10:06:25.026Z,459
2019-02-26T10:08:32.638Z,459.3
2019-02-26T10:10:41.540Z,459.4
2019-02-26T10:12:51.056Z,458.9
2019-02-26T10:13:55.852Z,458.8
2019-02-26T10:18:16.258Z,458.7
2019-02-26T10:21:28.653Z,458.6
2019-02-26T10:23:36.082Z,458.6
2019-02-26T10:25:43.489Z,458.5
2019-02-26T10:26:45.927Z,458.9
2019-02-26T10:27:49.809Z,458.5
2019-02-26T10:29:56.951Z,458.7
2019-02-26T10:32:04.060Z,458.8
2019-02-26T10:33:06.216Z,458.9
2019-02-26T10:36:20.356Z,458.8
2019-02-26T10:37:22.788Z,459.2
2019-02-26T10:39:32.310Z,458.5
2019-02-26T10:42:46.842Z,459
2019-02-26T10:43:49.291Z,459
2019-02-26T10:44:51.719Z,459.2
2019-02-26T10:48:04.110Z,459.3
2019-02-26T10:49:06.549Z,459.3
2019-02-26T10:53:31.806Z,459.3
2019-02-26T10:57:49.829Z,459.3
2019-02-26T11:02:07.186Z,459.8
2019-02-26T11:04:17.026Z,459.2
2019-02-26T11:06:24.228Z,459.3
2019-02-26T11:09:36.333Z,459.2
2019-02-26T11:11:44.341Z,459.5
2019-02-26T11:16:05.072Z,460
2019-02-26T11:17:07.502Z,460.2
2019-02-26T11:19:14.905Z,460.7
2019-02-26T11:20:21.574Z,460.4
2019-02-26T11:21:26.136Z,460.5
2019-02-26T11:22:30.011Z,460.4
2019-02-26T11:24:38.019Z,460.6
2019-02-26T11:25:40.158Z,460.4
2019-02-26T11:28:52.753Z,460.8
2019-02-26T11:31:02.184Z,460.5
2019-02-26T11:34:15.329Z,460.8
2019-02-26T11:36:22.730Z,460.8
2019-02-26T11:39:38.644Z,461
2019-02-26T11:40:41.071Z,461
2019-02-26T11:41:43.220Z,461
2019-02-26T11:43:50.082Z,461.4
2019-02-26T11:44:51.962Z,461.4
2019-02-26T11:45:54.142Z,461.3
2019-02-26T11:46:59.289Z,461.4
2019-02-26T11:49:06.710Z,461.9
2019-02-26T11:50:13.212Z,461.9
2019-02-26T11:52:22.160Z,462
2019-02-26T11:53:24.308Z,462.7
2019-02-26T11:54:30.825Z,462.6
2019-02-26T11:58:48.580Z,462.7
2019-02-26T11:59:50.737Z,463.1
2019-02-26T12:00:53.034Z,463.3
2019-02-26T12:03:01.454Z,463.5
2019-02-26T12:05:12.261Z,464.3
2019-02-26T12:06:14.425Z,463.9
2019-02-26T12:07:16.848Z,464.6
2019-02-26T12:09:26.868Z,464.6
2019-02-26T12:11:34.289Z,465.2
2019-02-26T12:12:38.854Z,465.1
2019-02-26T12:15:52.458Z,465.5
2019-02-26T12:16:54.883Z,465.4
2019-02-26T12:20:09.188Z,465.4
2019-02-26T12:21:14.114Z,465.8
2019-02-26T12:25:35.813Z,465.6
2019-02-26T12:26:37.971Z,465.7
2019-02-26T12:28:45.498Z,465.7
2019-02-26T12:30:52.905Z,466
2019-02-26T12:33:00.304Z,466.2
2019-02-26T12:34:02.451Z,466.2
2019-02-26T12:36:12.068Z,466.1
2019-02-26T12:37:14.487Z,466.4
2019-02-26T12:40:27.190Z,467
2019-02-26T12:41:29.620Z,466.5
2019-02-26T12:42:32.083Z,466.7
2019-02-26T12:45:46.127Z,467.2
2019-02-26T12:48:58.510Z,467.5
2019-02-26T12:51:09.253Z,468.1
2019-02-26T12:52:11.687Z,467.8
2019-02-26T12:54:18.803Z,467.6
2019-02-26T12:57:32.816Z,468.3
2019-02-26T12:58:34.971Z,468.2
2019-02-26T12:59:37.392Z,467.9
2019-02-26T13:02:53.910Z,468.7
2019-02-26T13:03:57.328Z,468.4
2019-02-26T13:04:59.492Z,468.4
2019-02-26T13:06:05.158Z,468.5
2019-02-26T13:09:18.818Z,468.7
2019-02-26T13:10:21.247Z,468.7
2019-02-26T13:13:33.326Z,470
2019-02-26T13:14:35.749Z,469.8
2019-02-26T13:15:37.642Z,470.2
2019-02-26T13:16:39.775Z,470.5
2019-02-26T13:26:25.946Z,471.2
2019-02-26T13:27:28.115Z,471.5
2019-02-26T13:28:31.667Z,470.6
2019-02-26T13:29:34.498Z,470.8
2019-02-26T13:30:36.129Z,470.9
2019-02-26T13:33:48.594Z,472
2019-02-26T13:37:00.988Z,472.2
2019-02-26T13:38:03.342Z,471.8
2019-02-26T13:39:06.726Z,471.7
2019-02-26T13:40:08.620Z,472
2019-02-26T13:43:20.453Z,472.2
2019-02-26T13:44:22.617Z,472.2
2019-02-26T13:45:25.036Z,472.4
2019-02-26T13:46:27.207Z,472.5
2019-02-26T13:47:29.637Z,472.4
2019-02-26T13:48:31.545Z,472.3
2019-02-26T13:49:33.710Z,472.2
2019-02-26T13:50:36.128Z,472.4
2019-02-26T13:51:38.578Z,472.6
2019-02-26T13:52:41.007Z,472.8
2019-02-26T13:53:42.883Z,472.5
2019-02-26T13:54:45.047Z,473.2
2019-02-26T13:55:47.178Z,473.1
2019-02-26T13:56:49.348Z,472.6
2019-02-26T13:57:51.518Z,472.5
2019-02-26T13:58:53.959Z,473.1
2019-02-26T13:59:55.850Z,472.9
2019-02-26T14:00:58.287Z,473.1
2019-02-26T14:02:00.714Z,473
2019-02-26T14:03:05.199Z,473.6
2019-02-26T14:04:08.256Z,473.5
2019-02-26T14:05:10.876Z,473.8
2019-02-26T14:06:13.304Z,474.1
2019-02-26T14:07:15.850Z,473.7
2019-02-26T14:08:18.281Z,473.5
2019-02-26T14:09:20.706Z,473.9
2019-02-26T14:10:23.133Z,473.6
2019-02-26T14:11:25.556Z,473.7
2019-02-26T14:12:27.706Z,473.4
2019-02-26T14:13:29.859Z,473.9
2019-02-26T14:14:32.004Z,474
2019-02-26T14:15:34.439Z,474
2019-02-26T14:16:37.222Z,473.6
2019-02-26T14:17:40.007Z,473.7
2019-02-26T14:18:42.097Z,473.9
2019-02-26T14:19:44.251Z,474.1
2019-02-26T14:20:47.572Z,474
2019-02-26T14:21:50.000Z,473.9
2019-02-26T14:22:52.158Z,473.7
2019-02-26T14:23:54.298Z,474.3
2019-02-26T14:24:56.741Z,474.1
2019-02-26T14:25:58.614Z,474
2019-02-26T14:27:00.488Z,474
2019-02-26T14:28:02.910Z,473.6
2019-02-26T14:29:05.058Z,474.2
2019-02-26T14:30:07.495Z,474
2019-02-26T14:31:10.111Z,473.9
2019-02-26T14:32:12.459Z,473.8
2019-02-26T14:33:15.138Z,474.2
2019-02-26T14:34:17.567Z,474.3
2019-02-26T14:35:20.001Z,473.9
2019-02-26T14:36:22.179Z,473.7
2019-02-26T14:37:24.608Z,473.5
2019-02-26T14:38:27.058Z,473.6
2019-02-26T14:39:29.231Z,473.6
2019-02-26T14:40:31.649Z,473.3
2019-02-26T14:41:34.072Z,473.6
2019-02-26T14:42:36.216Z,473.6
2019-02-26T14:43:38.647Z,474
2019-02-26T14:44:40.807Z,474.7
2019-02-26T14:45:44.139Z,474.9
2019-02-26T14:46:46.718Z,475
2019-02-26T14:47:48.876Z,475.2
2019-02-26T14:48:51.323Z,475.7
2019-02-26T14:49:53.207Z,475.7
2019-02-26T14:50:55.646Z,475.6
2019-02-26T14:51:58.081Z,476.5
2019-02-26T14:53:00.248Z,476.1
2019-02-26T14:54:03.048Z,476.3
2019-02-26T14:55:05.504Z,476.3
2019-02-26T14:56:07.937Z,476.3
2019-02-26T14:57:10.364Z,476.3
2019-02-26T14:58:12.511Z,476
2019-02-26T14:59:15.655Z,476.6
2019-02-26T15:00:18.385Z,476.6
2019-02-26T15:01:20.799Z,475.9
2019-02-26T15:02:23.228Z,476.2
2019-02-26T15:03:25.386Z,475.8
2019-02-26T15:04:27.567Z,476.2
2019-02-26T15:05:29.741Z,475.9
2019-02-26T15:06:31.888Z,476.6
2019-02-26T15:07:34.312Z,476.6
2019-02-26T15:08:35.905Z,477.5
2019-02-26T15:09:38.053Z,477.4
2019-02-26T15:10:40.478Z,477.5
2019-02-26T15:11:42.929Z,477.3
2019-02-26T15:12:45.877Z,477.1
2019-02-26T15:13:48.652Z,477.1
2019-02-26T15:14:51.383Z,477.5
2019-02-26T15:15:53.576Z,477.2
2019-02-26T15:16:56.030Z,477.4
2019-02-26T15:17:58.453Z,477.5
2019-02-26T15:19:00.606Z,477.3
2019-02-26T15:20:02.536Z,477
2019-02-26T15:21:04.702Z,477.4
2019-02-26T15:22:07.162Z,476.7
2019-02-26T15:23:09.574Z,476.9
2019-02-26T15:24:11.729Z,476.9
2019-02-26T15:25:14.162Z,477.1
2019-02-26T15:26:16.650Z,477.4
2019-02-26T15:27:19.544Z,476.7
2019-02-26T15:28:22.230Z,477.1
2019-02-26T15:29:24.395Z,477.2
2019-02-26T15:30:26.834Z,477
2019-02-26T15:31:28.966Z,477.5
2019-02-26T15:32:31.117Z,477.7
2019-02-26T15:33:33.026Z,477.7
2019-02-26T15:34:35.189Z,477.7
2019-02-26T15:35:37.617Z,477.6
2019-02-26T15:36:40.321Z,476.8
2019-02-26T15:37:42.507Z,476.9
2019-02-26T15:38:44.935Z,476.7
2019-02-26T15:39:47.555Z,477
2019-02-26T15:41:55.321Z,476.6
2019-02-26T15:42:58.129Z,476.8
2019-02-26T15:44:00.006Z,476.9
2019-02-26T15:45:02.486Z,476.7
2019-02-26T15:46:04.646Z,476.5
2019-02-26T15:47:09.091Z,476.8
2019-02-26T15:48:11.693Z,476.9
2019-02-26T15:49:14.120Z,477
2019-02-26T15:50:16.274Z,476.8
2019-02-26T15:52:23.957Z,476.6
2019-02-26T15:53:26.406Z,477.2
2019-02-26T15:54:29.328Z,476.8
2019-02-26T15:55:32.038Z,476.8
2019-02-26T15:56:34.364Z,476.7
2019-02-26T15:57:37.037Z,476.5
2019-02-26T15:58:39.481Z,477.1
2019-02-26T15:59:41.909Z,477.1
2019-02-26T16:00:44.331Z,476.7
2019-02-26T16:01:46.487Z,476.4
2019-02-26T16:02:48.360Z,476.5
2019-02-26T16:03:50.784Z,476.7
2019-02-26T16:04:52.667Z,476.5
2019-02-26T16:05:55.443Z,476.6
2019-02-26T16:06:57.317Z,476.5
2019-02-26T16:07:59.736Z,477.1
2019-02-26T16:09:02.703Z,476.7
2019-02-26T16:10:05.360Z,476.7
2019-02-26T16:11:07.830Z,476.6
2019-02-26T16:12:10.260Z,476.2
2019-02-26T16:13:12.681Z,476.3
2019-02-26T16:14:15.109Z,475.8
2019-02-26T16:15:17.255Z,476.4
2019-02-26T16:16:19.791Z,476
2019-02-26T16:17:21.951Z,476.4
2019-02-26T16:18:24.119Z,476.3
2019-02-26T16:19:26.283Z,476.4
2019-02-26T16:20:28.169Z,477
2019-02-26T16:21:30.595Z,477
2019-02-26T16:22:34.150Z,476.8
2019-02-26T16:23:36.438Z,476.9
2019-02-26T16:24:39.083Z,476.8
2019-02-26T16:25:41.512Z,476.7
2019-02-26T16:26:43.948Z,476.5
2019-02-26T16:27:46.378Z,476.5
2019-02-26T16:28:48.542Z,477
2019-02-26T16:29:50.709Z,477.4
2019-02-26T16:31:58.462Z,476.9
2019-02-26T16:33:00.656Z,477.7
2019-02-26T16:34:02.800Z,477.1
2019-02-26T16:35:05.231Z,476.8
2019-02-26T16:36:07.944Z,476.7
2019-02-26T16:37:10.570Z,476.7
2019-02-26T16:39:17.912Z,476.8
2019-02-26T16:40:20.345Z,476.8
2019-02-26T16:41:22.506Z,476.4
2019-02-26T16:42:24.945Z,476.4
2019-02-26T16:43:27.115Z,476.7
2019-02-26T16:44:29.594Z,476.5
2019-02-26T16:46:36.764Z,476.1
2019-02-26T16:47:39.208Z,476.2
2019-02-26T16:48:41.643Z,475.9
2019-02-26T16:49:43.812Z,476.2
2019-02-26T16:50:48.142Z,476.3
2019-02-26T16:51:52.412Z,476.4
2019-02-26T16:54:04.699Z,476.6
2019-02-26T16:55:09.290Z,476.7
2019-02-26T16:56:11.740Z,477.3
2019-02-26T16:57:13.620Z,477.4
2019-02-26T16:58:16.063Z,477.7
2019-02-26T16:59:18.489Z,477.5
2019-02-26T17:00:22.542Z,477.1
2019-02-26T17:01:24.703Z,476.9
2019-02-26T17:07:56.538Z,476.9
2019-02-26T17:08:59.013Z,477
2019-02-26T17:10:02.134Z,477.5
2019-02-26T17:11:04.809Z,477.6
2019-02-26T17:12:07.011Z,478
2019-02-26T17:13:09.452Z,477.6
2019-02-26T17:14:11.603Z,477.3
2019-02-26T17:15:14.032Z,477.3
2019-02-26T17:16:16.535Z,477
2019-02-26T17:17:18.722Z,477.5
2019-02-26T17:18:21.167Z,477.5
2019-02-26T17:19:23.360Z,477.6
2019-02-26T17:20:27.866Z,477.3
2019-02-26T17:22:35.266Z,477.2
2019-02-26T17:23:37.765Z,477.1
2019-02-26T17:24:40.662Z,476.5
2019-02-26T17:25:42.498Z,476.8
2019-02-26T17:26:44.930Z,476.5
2019-02-26T17:27:47.364Z,476.6
2019-02-26T17:28:49.813Z,476.7
2019-02-26T17:29:51.699Z,476.4
2019-02-26T17:33:06.409Z,476.8
2019-02-26T17:34:08.139Z,477.1
2019-02-26T17:35:10.302Z,476.8
2019-02-26T17:36:13.122Z,476.8
2019-02-26T17:37:15.276Z,476.3
2019-02-26T17:40:28.362Z,476.4
2019-02-26T17:41:30.795Z,476.1
2019-02-26T17:42:33.223Z,476
2019-02-26T17:43:35.738Z,476.2
2019-02-26T17:44:38.171Z,475.8
2019-02-26T17:45:40.340Z,475.8
2019-02-26T17:46:42.782Z,475.8
2019-02-26T17:47:44.924Z,476
2019-02-26T17:48:47.368Z,476.2
2019-02-26T17:49:49.814Z,476.1
2019-02-26T17:50:51.969Z,476
2019-02-26T17:51:54.149Z,475.7
2019-02-26T17:52:57.317Z,476.2
2019-02-26T17:54:01.941Z,475.7
2019-02-26T17:56:12.530Z,476.4
2019-02-26T17:57:14.972Z,476.3
2019-02-26T17:58:17.404Z,476.3
2019-02-26T17:59:19.834Z,476.1
2019-02-26T18:00:22.269Z,476.1
2019-02-26T18:01:24.708Z,476.5
2019-02-26T18:02:29.475Z,476.7
2019-02-26T18:03:31.913Z,476.5
2019-02-26T18:04:34.341Z,476
2019-02-26T18:06:41.783Z,475.6
2019-02-26T18:07:44.232Z,475.4
2019-02-26T18:08:46.806Z,475.2
2019-02-26T18:09:50.594Z,475.7
2019-02-26T18:10:52.832Z,476.1
2019-02-26T18:11:55.516Z,476.3
2019-02-26T18:12:57.944Z,476.4
2019-02-26T18:14:02.355Z,476.5
2019-02-26T18:15:04.502Z,476.3
2019-02-26T18:17:11.914Z,476.6
2019-02-26T18:18:14.070Z,476.5
2019-02-26T18:19:16.212Z,476.3
2019-02-26T18:20:18.344Z,476.6
2019-02-26T18:21:20.778Z,476.6
2019-02-26T18:22:23.890Z,476.4
2019-02-26T18:23:26.050Z,477
2019-02-26T18:24:28.220Z,476.1
2019-02-26T18:25:30.648Z,476.5
2019-02-26T18:26:33.119Z,476.5
2019-02-26T18:27:35.557Z,476.6
2019-02-26T18:28:38.814Z,476.5
2019-02-26T18:29:41.290Z,476.3
2019-02-26T18:30:43.723Z,476.4
2019-02-26T18:31:46.158Z,476.4
2019-02-26T18:33:53.582Z,476.7
2019-02-26T18:34:56.020Z,476.6
2019-02-26T18:36:00.286Z,476.3
2019-02-26T18:37:02.722Z,476.5
2019-02-26T18:38:05.172Z,476.6
2019-02-26T18:39:07.328Z,476.7
2019-02-26T18:40:09.490Z,476.5
2019-02-26T18:41:11.952Z,476.4
2019-02-26T18:42:16.127Z,476.5
2019-02-26T18:43:18.016Z,476.4
2019-02-26T18:47:36.586Z,476
2019-02-26T18:48:39.019Z,476.2
2019-02-26T18:49:41.438Z,476.1
2019-02-26T18:50:43.874Z,475.7
2019-02-26T18:51:46.366Z,475.7
2019-02-26T18:52:48.799Z,475.7
2019-02-26T18:53:51.234Z,475.5
2019-02-26T18:55:58.659Z,475.2
2019-02-26T18:57:00.820Z,475.4
2019-02-26T18:58:03.244Z,476
2019-02-26T18:59:05.424Z,475.6
2019-02-26T19:00:07.605Z,475.5
2019-02-26T19:01:10.031Z,475.9
2019-02-26T19:02:12.189Z,475.7
2019-02-26T19:03:14.330Z,476
2019-02-26T19:04:18.669Z,476.3
2019-02-26T19:05:24.859Z,475.8
2019-02-26T19:10:47.903Z,476
2019-02-26T19:11:50.069Z,475.9
2019-02-26T19:12:52.529Z,475.4
2019-02-26T19:13:54.973Z,475.4
2019-02-26T19:14:57.125Z,475.6
2019-02-26T19:15:59.316Z,475.7
2019-02-26T19:17:01.804Z,475.4
2019-02-26T19:18:05.224Z,475.5
2019-02-26T19:21:21.513Z,475.5
2019-02-26T19:34:22.945Z,476.1
2019-02-26T19:35:25.387Z,476.4
2019-02-26T19:36:27.577Z,476
2019-02-26T19:37:29.762Z,476.2
2019-02-26T19:38:32.197Z,476
2019-02-26T19:39:36.146Z,475.9
2019-02-26T19:42:52.599Z,475.8
2019-02-26T19:43:57.515Z,475.6
2019-02-26T19:45:01.967Z,475.7
2019-02-26T19:46:03.585Z,475.4
2019-02-26T19:47:06.019Z,475
2019-02-26T19:48:08.192Z,475.2
2019-02-26T19:49:10.655Z,475.4
2019-02-26T19:50:16.231Z,475.5
2019-02-26T19:52:24.624Z,475.4
2019-02-26T19:53:26.780Z,475.5
2019-02-26T19:54:29.264Z,476
2019-02-26T19:55:31.743Z,476
2019-02-26T19:56:34.180Z,475.9
2019-02-26T19:57:36.350Z,476.1
2019-02-26T20:04:07.539Z,476.3
2019-02-26T20:06:14.938Z,476
2019-02-26T20:07:17.379Z,476.5
2019-02-26T20:08:19.830Z,476.6
2019-02-26T20:09:22.271Z,475.9
2019-02-26T20:10:24.450Z,476.5
2019-02-26T20:11:26.623Z,476.4
2019-02-26T20:12:31.135Z,476.7
2019-02-26T20:14:38.270Z,476.9
2019-02-26T20:15:40.479Z,477.3
2019-02-26T20:16:44.776Z,477.3
2019-02-26T20:18:51.937Z,477.6
2019-02-26T20:19:54.129Z,477.6
2019-02-26T20:20:56.576Z,477.6
2019-02-26T20:21:59.027Z,477.4
2019-02-26T20:24:07.136Z,477.6
2019-02-26T20:25:09.311Z,477.1
2019-02-26T20:26:11.219Z,477.6
2019-02-26T20:27:13.663Z,477.1
2019-02-26T20:28:15.864Z,477.4
2019-02-26T20:29:18.300Z,477
2019-02-26T20:30:22.793Z,477.1
2019-02-26T20:31:25.411Z,477
2019-02-26T20:33:32.457Z,477.5
2019-02-26T20:34:35.397Z,477.2
2019-02-26T20:35:37.902Z,477.3
2019-02-26T20:36:40.327Z,477
2019-02-26T20:37:42.780Z,477.1
2019-02-26T20:38:45.212Z,476.7
2019-02-26T20:39:47.649Z,476.7
2019-02-26T20:40:51.367Z,477
2019-02-26T20:44:04.233Z,477.2
2019-02-26T20:45:06.718Z,476.7
2019-02-26T20:46:08.895Z,476.9
2019-02-26T20:47:11.408Z,477.6
2019-02-26T20:48:13.852Z,477.1
2019-02-26T20:49:16.289Z,477.2
2019-02-26T20:56:52.238Z,478.6
2019-02-26T20:57:56.519Z,478.6
2019-02-26T20:58:58.966Z,478.8
2019-02-26T21:00:01.399Z,478.5
2019-02-26T21:01:03.853Z,478.4
2019-02-26T21:02:06.001Z,478.2